sensor_id;sensor_type;location;lat;lon;timestamp;temperature;humidity
66576;SHT31;53428;47.686;16.584;2023-08-07T00:03:29;15.27;74.42
66576;SHT31;53428;47.686;16.584;2023-08-07T00:08:28;15.44;74.89
66576;SHT31;53428;47.686;16.584;2023-08-07T00:13:29;15.34;75.67
66576;SHT31;53428;47.686;16.584;2023-08-07T00:18:29;15.35;75.87
66576;SHT31;53428;47.686;16.584;2023-08-07T00:23:28;15.61;72.77
66576;SHT31;53428;47.686;16.584;2023-08-07T00:28:27;15.73;72.22
66576;SHT31;53428;47.686;16.584;2023-08-07T00:33:28;16.07;71.26
66576;SHT31;53428;47.686;16.584;2023-08-07T00:38:28;16.21;70.62
66576;SHT31;53428;47.686;16.584;2023-08-07T00:43:27;16.40;70.01
66576;SHT31;53428;47.686;16.584;2023-08-07T00:48:26;16.43;69.96
66576;SHT31;53428;47.686;16.584;2023-08-07T00:53:26;16.41;69.95
66576;SHT31;53428;47.686;16.584;2023-08-07T00:58:25;16.43;69.70
66576;SHT31;53428;47.686;16.584;2023-08-07T01:03:24;16.48;69.64
66576;SHT31;53428;47.686;16.584;2023-08-07T01:08:24;16.64;68.77
66576;SHT31;53428;47.686;16.584;2023-08-07T01:13:45;16.71;68.82
66576;SHT31;53428;47.686;16.584;2023-08-07T01:18:46;16.61;69.07
66576;SHT31;53428;47.686;16.584;2023-08-07T01:23:46;16.71;68.78
66576;SHT31;53428;47.686;16.584;2023-08-07T01:29:12;16.64;68.95
66576;SHT31;53428;47.686;16.584;2023-08-07T01:34:12;16.50;69.51
66576;SHT31;53428;47.686;16.584;2023-08-07T01:39:14;16.55;69.15
66576;SHT31;53428;47.686;16.584;2023-08-07T01:44:14;16.67;69.00
66576;SHT31;53428;47.686;16.584;2023-08-07T01:49:14;16.67;68.65
66576;SHT31;53428;47.686;16.584;2023-08-07T01:54:13;16.58;69.18
66576;SHT31;53428;47.686;16.584;2023-08-07T01:59:12;16.63;68.61
66576;SHT31;53428;47.686;16.584;2023-08-07T02:04:13;16.65;68.70
66576;SHT31;53428;47.686;16.584;2023-08-07T02:09:12;16.64;68.68
66576;SHT31;53428;47.686;16.584;2023-08-07T02:14:11;16.68;68.52
66576;SHT31;53428;47.686;16.584;2023-08-07T02:19:10;16.64;68.29
66576;SHT31;53428;47.686;16.584;2023-08-07T02:24:10;16.65;68.05
66576;SHT31;53428;47.686;16.584;2023-08-07T02:29:09;16.64;68.00
66576;SHT31;53428;47.686;16.584;2023-08-07T02:34:08;16.68;67.46
66576;SHT31;53428;47.686;16.584;2023-08-07T02:39:08;16.67;67.41
66576;SHT31;53428;47.686;16.584;2023-08-07T02:44:07;16.78;66.28
66576;SHT31;53428;47.686;16.584;2023-08-07T02:49:06;16.82;66.12
66576;SHT31;53428;47.686;16.584;2023-08-07T02:54:05;16.79;65.77
66576;SHT31;53428;47.686;16.584;2023-08-07T02:59:05;16.84;65.54
66576;SHT31;53428;47.686;16.584;2023-08-07T03:04:05;16.78;65.38
66576;SHT31;53428;47.686;16.584;2023-08-07T03:09:04;16.84;65.04
66576;SHT31;53428;47.686;16.584;2023-08-07T03:14:03;16.93;64.44
66576;SHT31;53428;47.686;16.584;2023-08-07T03:19:02;16.85;65.05
66576;SHT31;53428;47.686;16.584;2023-08-07T03:24:02;16.79;65.16
66576;SHT31;53428;47.686;16.584;2023-08-07T03:29:01;16.67;65.50
66576;SHT31;53428;47.686;16.584;2023-08-07T03:34:00;16.61;66.14
66576;SHT31;53428;47.686;16.584;2023-08-07T03:39:00;16.53;66.32
66576;SHT31;53428;47.686;16.584;2023-08-07T03:43:59;16.34;66.94
66576;SHT31;53428;47.686;16.584;2023-08-07T03:48:58;16.21;67.63
66576;SHT31;53428;47.686;16.584;2023-08-07T03:53:58;16.07;68.29
66576;SHT31;53428;47.686;16.584;2023-08-07T03:58:57;15.98;68.78
66576;SHT31;53428;47.686;16.584;2023-08-07T04:03:56;15.78;69.59
66576;SHT31;53428;47.686;16.584;2023-08-07T04:08:55;15.52;71.56
66576;SHT31;53428;47.686;16.584;2023-08-07T04:13:54;15.32;72.53
66576;SHT31;53428;47.686;16.584;2023-08-07T04:18:54;15.40;72.71
66576;SHT31;53428;47.686;16.584;2023-08-07T04:23:53;15.57;70.39
66576;SHT31;53428;47.686;16.584;2023-08-07T04:28:52;15.92;69.20
66576;SHT31;53428;47.686;16.584;2023-08-07T04:33:51;15.93;71.76
66576;SHT31;53428;47.686;16.584;2023-08-07T04:38:51;15.96;71.78
66576;SHT31;53428;47.686;16.584;2023-08-07T04:43:50;16.37;68.19
66576;SHT31;53428;47.686;16.584;2023-08-07T04:48:49;15.77;70.41
66576;SHT31;53428;47.686;16.584;2023-08-07T04:53:48;15.31;74.86
66576;SHT31;53428;47.686;16.584;2023-08-07T04:58:50;15.55;73.36
66576;SHT31;53428;47.686;16.584;2023-08-07T05:03:49;15.75;72.93
66576;SHT31;53428;47.686;16.584;2023-08-07T05:08:48;15.93;72.23
66576;SHT31;53428;47.686;16.584;2023-08-07T05:13:47;16.10;69.73
66576;SHT31;53428;47.686;16.584;2023-08-07T05:18:46;16.20;69.03
66576;SHT31;53428;47.686;16.584;2023-08-07T05:23:46;16.34;67.75
66576;SHT31;53428;47.686;16.584;2023-08-07T05:28:46;16.38;67.84
66576;SHT31;53428;47.686;16.584;2023-08-07T05:33:45;16.18;69.96
66576;SHT31;53428;47.686;16.584;2023-08-07T05:38:45;15.54;72.72
66576;SHT31;53428;47.686;16.584;2023-08-07T05:43:45;15.07;75.00
66576;SHT31;53428;47.686;16.584;2023-08-07T05:48:44;14.97;75.44
66576;SHT31;53428;47.686;16.584;2023-08-07T05:53:44;14.97;76.24
66576;SHT31;53428;47.686;16.584;2023-08-07T05:58:45;14.92;77.76
66576;SHT31;53428;47.686;16.584;2023-08-07T06:03:44;15.06;77.80
66576;SHT31;53428;47.686;16.584;2023-08-07T06:08:44;15.48;75.74
66576;SHT31;53428;47.686;16.584;2023-08-07T06:13:43;15.72;73.12
66576;SHT31;53428;47.686;16.584;2023-08-07T06:18:42;15.88;72.44
66576;SHT31;53428;47.686;16.584;2023-08-07T06:23:42;15.96;70.62
66576;SHT31;53428;47.686;16.584;2023-08-07T06:28:42;16.03;72.62
66576;SHT31;53428;47.686;16.584;2023-08-07T06:33:41;16.23;71.51
66576;SHT31;53428;47.686;16.584;2023-08-07T06:38:41;16.27;71.64
66576;SHT31;53428;47.686;16.584;2023-08-07T06:43:40;16.24;69.30
66576;SHT31;53428;47.686;16.584;2023-08-07T06:48:40;16.23;69.33
66576;SHT31;53428;47.686;16.584;2023-08-07T06:53:39;16.18;69.80
66576;SHT31;53428;47.686;16.584;2023-08-07T06:58:38;16.18;69.29
66576;SHT31;53428;47.686;16.584;2023-08-07T07:03:38;16.26;70.19
66576;SHT31;53428;47.686;16.584;2023-08-07T07:08:37;16.47;67.89
66576;SHT31;53428;47.686;16.584;2023-08-07T07:13:37;16.65;66.71
66576;SHT31;53428;47.686;16.584;2023-08-07T07:18:36;16.65;64.91
66576;SHT31;53428;47.686;16.584;2023-08-07T07:23:36;16.64;64.95
66576;SHT31;53428;47.686;16.584;2023-08-07T07:28:35;16.60;64.75
66576;SHT31;53428;47.686;16.584;2023-08-07T07:33:35;16.63;65.00
66576;SHT31;53428;47.686;16.584;2023-08-07T07:38:35;16.60;64.74
66576;SHT31;53428;47.686;16.584;2023-08-07T07:43:34;16.68;64.79
66576;SHT31;53428;47.686;16.584;2023-08-07T07:48:34;16.74;64.43
66576;SHT31;53428;47.686;16.584;2023-08-07T07:53:34;17.01;64.74
66576;SHT31;53428;47.686;16.584;2023-08-07T07:58:35;17.22;63.05
66576;SHT31;53428;47.686;16.584;2023-08-07T08:03:34;17.33;63.49
66576;SHT31;53428;47.686;16.584;2023-08-07T08:08:34;17.49;62.66
66576;SHT31;53428;47.686;16.584;2023-08-07T08:13:34;17.50;61.66
66576;SHT31;53428;47.686;16.584;2023-08-07T08:18:37;17.47;61.47
66576;SHT31;53428;47.686;16.584;2023-08-07T08:23:37;17.63;61.77
66576;SHT31;53428;47.686;16.584;2023-08-07T08:28:37;17.23;62.22
66576;SHT31;53428;47.686;16.584;2023-08-07T08:33:37;17.39;61.62
66576;SHT31;53428;47.686;16.584;2023-08-07T08:38:36;18.04;61.17
66576;SHT31;53428;47.686;16.584;2023-08-07T08:43:38;17.80;60.81
66576;SHT31;53428;47.686;16.584;2023-08-07T08:48:40;17.73;60.94
66576;SHT31;53428;47.686;16.584;2023-08-07T08:53:41;17.77;61.52
66576;SHT31;53428;47.686;16.584;2023-08-07T08:58:41;17.80;61.10
66576;SHT31;53428;47.686;16.584;2023-08-07T09:03:40;17.69;62.01
66576;SHT31;53428;47.686;16.584;2023-08-07T09:08:43;17.26;62.88
66576;SHT31;53428;47.686;16.584;2023-08-07T09:13:45;17.08;63.85
66576;SHT31;53428;47.686;16.584;2023-08-07T09:18:46;16.60;67.72
66576;SHT31;53428;47.686;16.584;2023-08-07T09:23:47;16.48;66.31
66576;SHT31;53428;47.686;16.584;2023-08-07T09:28:47;16.45;66.04
66576;SHT31;53428;47.686;16.584;2023-08-07T09:33:49;16.53;65.72
66576;SHT31;53428;47.686;16.584;2023-08-07T09:38:51;16.57;65.45
66576;SHT31;53428;47.686;16.584;2023-08-07T09:43:50;16.74;65.46
66576;SHT31;53428;47.686;16.584;2023-08-07T09:48:50;16.82;65.95
66576;SHT31;53428;47.686;16.584;2023-08-07T09:53:49;16.55;68.51
66576;SHT31;53428;47.686;16.584;2023-08-07T09:58:49;15.83;72.17
66576;SHT31;53428;47.686;16.584;2023-08-07T10:03:48;15.23;74.80
66576;SHT31;53428;47.686;16.584;2023-08-07T10:08:48;14.75;77.25
66576;SHT31;53428;47.686;16.584;2023-08-07T10:13:49;14.29;77.92
66576;SHT31;53428;47.686;16.584;2023-08-07T10:18:49;13.94;79.56
66576;SHT31;53428;47.686;16.584;2023-08-07T10:23:52;13.55;83.16
66576;SHT31;53428;47.686;16.584;2023-08-07T10:28:53;13.63;83.78
66576;SHT31;53428;47.686;16.584;2023-08-07T10:33:53;13.93;83.32
66576;SHT31;53428;47.686;16.584;2023-08-07T10:39:07;13.90;84.27
66576;SHT31;53428;47.686;16.584;2023-08-07T10:44:24;13.81;86.35
66576;SHT31;53428;47.686;16.584;2023-08-07T10:49:30;13.65;85.25
66576;SHT31;53428;47.686;16.584;2023-08-07T10:54:30;13.56;86.27
66576;SHT31;53428;47.686;16.584;2023-08-07T11:04:56;13.43;87.00
66576;SHT31;53428;47.686;16.584;2023-08-07T11:09:56;13.49;88.62
66576;SHT31;53428;47.686;16.584;2023-08-07T11:14:56;13.42;89.65
66576;SHT31;53428;47.686;16.584;2023-08-07T11:19:56;13.34;89.12
66576;SHT31;53428;47.686;16.584;2023-08-07T11:24:56;13.32;88.31
66576;SHT31;53428;47.686;16.584;2023-08-07T11:29:55;13.59;88.47
66576;SHT31;53428;47.686;16.584;2023-08-07T11:34:54;13.83;88.77
66576;SHT31;53428;47.686;16.584;2023-08-07T11:40:00;14.20;87.76
66576;SHT31;53428;47.686;16.584;2023-08-07T11:45:02;14.41;86.89
66576;SHT31;53428;47.686;16.584;2023-08-07T11:50:01;14.22;86.64
66576;SHT31;53428;47.686;16.584;2023-08-07T11:55:02;14.22;87.62
66576;SHT31;53428;47.686;16.584;2023-08-07T12:00:05;14.18;87.90
66576;SHT31;53428;47.686;16.584;2023-08-07T12:05:08;14.28;85.78
66576;SHT31;53428;47.686;16.584;2023-08-07T12:10:10;14.24;85.14
66576;SHT31;53428;47.686;16.584;2023-08-07T12:15:10;14.36;84.88
66576;SHT31;53428;47.686;16.584;2023-08-07T12:20:09;14.29;84.37
66576;SHT31;53428;47.686;16.584;2023-08-07T12:25:10;14.29;86.37
66576;SHT31;53428;47.686;16.584;2023-08-07T12:30:11;14.17;85.49
66576;SHT31;53428;47.686;16.584;2023-08-07T12:35:12;14.03;85.79
66576;SHT31;53428;47.686;16.584;2023-08-07T12:40:11;14.03;84.66
66576;SHT31;53428;47.686;16.584;2023-08-07T12:45:11;14.13;84.19
66576;SHT31;53428;47.686;16.584;2023-08-07T12:50:10;14.07;84.95
66576;SHT31;53428;47.686;16.584;2023-08-07T12:55:10;14.10;85.02
66576;SHT31;53428;47.686;16.584;2023-08-07T13:00:11;14.18;86.04
66576;SHT31;53428;47.686;16.584;2023-08-07T13:05:14;14.41;85.91
66576;SHT31;53428;47.686;16.584;2023-08-07T13:10:16;14.80;84.49
66576;SHT31;53428;47.686;16.584;2023-08-07T13:15:17;15.04;84.10
66576;SHT31;53428;47.686;16.584;2023-08-07T13:20:16;15.20;84.04
66576;SHT31;53428;47.686;16.584;2023-08-07T13:25:16;15.41;82.51
66576;SHT31;53428;47.686;16.584;2023-08-07T13:30:15;15.78;83.22
66576;SHT31;53428;47.686;16.584;2023-08-07T13:35:15;16.17;80.67
66576;SHT31;53428;47.686;16.584;2023-08-07T13:40:14;16.18;80.61
66576;SHT31;53428;47.686;16.584;2023-08-07T13:45:13;16.98;78.10
66576;SHT31;53428;47.686;16.584;2023-08-07T13:50:13;17.88;76.62
66576;SHT31;53428;47.686;16.584;2023-08-07T13:55:12;17.80;75.63
66576;SHT31;53428;47.686;16.584;2023-08-07T14:00:12;16.89;77.54
66576;SHT31;53428;47.686;16.584;2023-08-07T14:05:12;16.81;77.54
66576;SHT31;53428;47.686;16.584;2023-08-07T14:10:14;16.79;76.85
66576;SHT31;53428;47.686;16.584;2023-08-07T14:15:13;16.93;75.57
66576;SHT31;53428;47.686;16.584;2023-08-07T14:20:13;18.15;73.08
66576;SHT31;53428;47.686;16.584;2023-08-07T14:25:12;16.71;74.25
66576;SHT31;53428;47.686;16.584;2023-08-07T14:30:12;16.58;74.80
66576;SHT31;53428;47.686;16.584;2023-08-07T14:35:11;16.20;75.97
66576;SHT31;53428;47.686;16.584;2023-08-07T14:40:10;16.28;75.21
66576;SHT31;53428;47.686;16.584;2023-08-07T14:45:10;16.36;75.22
66576;SHT31;53428;47.686;16.584;2023-08-07T14:50:09;16.38;74.48
66576;SHT31;53428;47.686;16.584;2023-08-07T14:55:08;16.45;74.03
66576;SHT31;53428;47.686;16.584;2023-08-07T15:00:08;16.48;72.45
66576;SHT31;53428;47.686;16.584;2023-08-07T15:05:08;16.38;72.75
66576;SHT31;53428;47.686;16.584;2023-08-07T15:10:08;16.34;72.59
66576;SHT31;53428;47.686;16.584;2023-08-07T15:15:08;16.61;71.91
66576;SHT31;53428;47.686;16.584;2023-08-07T15:20:08;16.60;72.44
66576;SHT31;53428;47.686;16.584;2023-08-07T15:25:08;16.54;72.99
66576;SHT31;53428;47.686;16.584;2023-08-07T15:30:08;16.60;72.40
66576;SHT31;53428;47.686;16.584;2023-08-07T15:35:09;16.54;72.32
66576;SHT31;53428;47.686;16.584;2023-08-07T15:40:09;16.79;71.94
66576;SHT31;53428;47.686;16.584;2023-08-07T15:45:09;16.75;71.45
66576;SHT31;53428;47.686;16.584;2023-08-07T15:50:09;16.68;71.03
66576;SHT31;53428;47.686;16.584;2023-08-07T15:55:08;16.89;70.81
66576;SHT31;53428;47.686;16.584;2023-08-07T16:00:08;18.19;67.84
66576;SHT31;53428;47.686;16.584;2023-08-07T16:05:09;18.39;66.14
66576;SHT31;53428;47.686;16.584;2023-08-07T16:10:08;17.40;69.87
66576;SHT31;53428;47.686;16.584;2023-08-07T16:15:08;17.29;70.55
66576;SHT31;53428;47.686;16.584;2023-08-07T16:20:08;19.70;64.72
66576;SHT31;53428;47.686;16.584;2023-08-07T16:25:07;18.12;68.14
66576;SHT31;53428;47.686;16.584;2023-08-07T16:30:07;20.13;62.59
66576;SHT31;53428;47.686;16.584;2023-08-07T16:35:07;17.66;68.49
66576;SHT31;53428;47.686;16.584;2023-08-07T16:40:07;17.20;70.53
66576;SHT31;53428;47.686;16.584;2023-08-07T16:45:07;17.22;70.73
66576;SHT31;53428;47.686;16.584;2023-08-07T16:50:08;17.12;71.31
66576;SHT31;53428;47.686;16.584;2023-08-07T16:55:08;18.21;69.60
66576;SHT31;53428;47.686;16.584;2023-08-07T17:00:08;19.76;66.27
66576;SHT31;53428;47.686;16.584;2023-08-07T17:05:09;18.16;70.02
66576;SHT31;53428;47.686;16.584;2023-08-07T17:10:09;17.15;72.95
66576;SHT31;53428;47.686;16.584;2023-08-07T17:15:12;16.45;75.33
66576;SHT31;53428;47.686;16.584;2023-08-07T17:20:11;15.96;76.72
66576;SHT31;53428;47.686;16.584;2023-08-07T17:25:11;15.85;77.58
66576;SHT31;53428;47.686;16.584;2023-08-07T17:30:11;15.57;78.34
66576;SHT31;53428;47.686;16.584;2023-08-07T17:35:11;15.62;77.05
66576;SHT31;53428;47.686;16.584;2023-08-07T17:40:10;15.66;75.80
66576;SHT31;53428;47.686;16.584;2023-08-07T17:45:12;15.63;75.37
66576;SHT31;53428;47.686;16.584;2023-08-07T17:50:12;15.69;75.38
66576;SHT31;53428;47.686;16.584;2023-08-07T17:55:12;15.51;76.08
66576;SHT31;53428;47.686;16.584;2023-08-07T18:00:14;15.31;76.73
66576;SHT31;53428;47.686;16.584;2023-08-07T18:05:13;15.24;76.97
66576;SHT31;53428;47.686;16.584;2023-08-07T18:10:13;15.02;77.79
66576;SHT31;53428;47.686;16.584;2023-08-07T18:15:12;14.80;79.64
66576;SHT31;53428;47.686;16.584;2023-08-07T18:20:12;14.39;80.71
66576;SHT31;53428;47.686;16.584;2023-08-07T18:25:11;14.00;83.65
66576;SHT31;53428;47.686;16.584;2023-08-07T18:30:12;13.66;85.35
66576;SHT31;53428;47.686;16.584;2023-08-07T18:35:12;13.63;85.53
66576;SHT31;53428;47.686;16.584;2023-08-07T18:40:13;13.66;86.78
66576;SHT31;53428;47.686;16.584;2023-08-07T18:45:15;13.31;87.37
66576;SHT31;53428;47.686;16.584;2023-08-07T18:50:15;13.26;87.86
66576;SHT31;53428;47.686;16.584;2023-08-07T18:55:17;13.18;88.39
66576;SHT31;53428;47.686;16.584;2023-08-07T19:00:18;13.07;88.54
66576;SHT31;53428;47.686;16.584;2023-08-07T19:05:17;13.11;89.14
66576;SHT31;53428;47.686;16.584;2023-08-07T19:10:17;13.15;89.30
66576;SHT31;53428;47.686;16.584;2023-08-07T19:15:17;13.34;89.63
66576;SHT31;53428;47.686;16.584;2023-08-07T19:20:16;13.18;89.93
66576;SHT31;53428;47.686;16.584;2023-08-07T19:25:17;12.90;91.10
66576;SHT31;53428;47.686;16.584;2023-08-07T19:30:20;12.87;90.71
66576;SHT31;53428;47.686;16.584;2023-08-07T19:35:20;12.90;89.18
66576;SHT31;53428;47.686;16.584;2023-08-07T19:40:20;12.76;89.99
66576;SHT31;53428;47.686;16.584;2023-08-07T19:45:24;12.68;91.34
66576;SHT31;53428;47.686;16.584;2023-08-07T19:50:25;12.85;90.85
66576;SHT31;53428;47.686;16.584;2023-08-07T19:55:25;12.50;91.91
66576;SHT31;53428;47.686;16.584;2023-08-07T20:00:25;12.52;92.40
66576;SHT31;53428;47.686;16.584;2023-08-07T20:05:25;13.40;84.52
66576;SHT31;53428;47.686;16.584;2023-08-07T20:10:25;13.83;82.25
66576;SHT31;53428;47.686;16.584;2023-08-07T20:15:24;13.93;81.87
66576;SHT31;53428;47.686;16.584;2023-08-07T20:20:24;14.10;80.13
66576;SHT31;53428;47.686;16.584;2023-08-07T20:25:23;14.41;78.88
66576;SHT31;53428;47.686;16.584;2023-08-07T20:30:25;14.84;77.18
66576;SHT31;53428;47.686;16.584;2023-08-07T20:35:24;15.30;75.14
66576;SHT31;53428;47.686;16.584;2023-08-07T20:40:24;15.45;74.60
66576;SHT31;53428;47.686;16.584;2023-08-07T20:45:32;15.48;74.38
66576;SHT31;53428;47.686;16.584;2023-08-07T20:50:32;15.57;73.95
66576;SHT31;53428;47.686;16.584;2023-08-07T20:55:31;15.41;74.81
66576;SHT31;53428;47.686;16.584;2023-08-07T21:00:31;15.35;74.87
66576;SHT31;53428;47.686;16.584;2023-08-07T21:05:30;15.26;75.34
66576;SHT31;53428;47.686;16.584;2023-08-07T21:10:30;15.26;75.14
66576;SHT31;53428;47.686;16.584;2023-08-07T21:15:29;15.30;75.13
66576;SHT31;53428;47.686;16.584;2023-08-07T21:20:28;15.28;75.15
66576;SHT31;53428;47.686;16.584;2023-08-07T21:25:28;15.26;75.42
66576;SHT31;53428;47.686;16.584;2023-08-07T21:30:27;15.27;75.53
66576;SHT31;53428;47.686;16.584;2023-08-07T21:35:27;15.30;75.41
66576;SHT31;53428;47.686;16.584;2023-08-07T21:40:26;15.23;75.75
66576;SHT31;53428;47.686;16.584;2023-08-07T21:45:25;15.26;75.61
66576;SHT31;53428;47.686;16.584;2023-08-07T21:50:25;15.32;75.24
66576;SHT31;53428;47.686;16.584;2023-08-07T21:55:24;15.35;75.05
66576;SHT31;53428;47.686;16.584;2023-08-07T22:00:23;15.30;75.36
66576;SHT31;53428;47.686;16.584;2023-08-07T22:05:23;15.23;75.65
66576;SHT31;53428;47.686;16.584;2023-08-07T22:10:22;15.32;75.20
66576;SHT31;53428;47.686;16.584;2023-08-07T22:15:22;15.06;76.30
66576;SHT31;53428;47.686;16.584;2023-08-07T22:20:21;14.73;77.86
66576;SHT31;53428;47.686;16.584;2023-08-07T22:25:21;14.28;80.12
66576;SHT31;53428;47.686;16.584;2023-08-07T22:30:20;13.88;81.86
66576;SHT31;53428;47.686;16.584;2023-08-07T22:35:20;13.53;83.17
66576;SHT31;53428;47.686;16.584;2023-08-07T22:40:20;13.25;84.44
66576;SHT31;53428;47.686;16.584;2023-08-07T22:45:19;13.08;84.98
66576;SHT31;53428;47.686;16.584;2023-08-07T22:50:19;12.80;86.03
66576;SHT31;53428;47.686;16.584;2023-08-07T22:55:18;12.65;86.75
66576;SHT31;53428;47.686;16.584;2023-08-07T23:00:17;12.43;87.49
66576;SHT31;53428;47.686;16.584;2023-08-07T23:05:17;12.97;84.36
66576;SHT31;53428;47.686;16.584;2023-08-07T23:10:17;13.36;82.33
66576;SHT31;53428;47.686;16.584;2023-08-07T23:15:16;13.43;81.60
66576;SHT31;53428;47.686;16.584;2023-08-07T23:20:16;13.80;79.98
66576;SHT31;53428;47.686;16.584;2023-08-07T23:25:15;13.71;80.27
66576;SHT31;53428;47.686;16.584;2023-08-07T23:30:15;13.49;80.64
66576;SHT31;53428;47.686;16.584;2023-08-07T23:35:14;13.29;81.79
66576;SHT31;53428;47.686;16.584;2023-08-07T23:40:14;13.00;82.35
66576;SHT31;53428;47.686;16.584;2023-08-07T23:45:13;12.63;84.12
66576;SHT31;53428;47.686;16.584;2023-08-07T23:50:12;12.28;85.51
66576;SHT31;53428;47.686;16.584;2023-08-07T23:55:12;12.12;87.55
